This is the latest recevied weather packets stored in our database for station/object DL2BWO-13. If no packets are shown the sender has not sent any weather packets the latest 10 day(s).
| Time | Temp. | Humidity | Pressure | Rain* | Wind** | Luminosity | Snow |
|---|---|---|---|---|---|---|---|
| 1777870667 | 17.22° C | 63% | 744.7 hPa | 0 mm | - | - | - |
| 1777869731 | 17.22° C | 63% | 744.6 hPa | 0 mm | - | - | - |
| 1777868795 | 16.67° C | 62% | 744.4 hPa | 0 mm | - | - | - |
| 1777867859 | 16.67° C | 61% | 744.4 hPa | 0 mm | - | - | - |
| 1777866923 | 16.67° C | 62% | 744.3 hPa | 0 mm | - | - | - |
| 1777865987 | 17.22° C | 60% | 744.6 hPa | 0 mm | - | - | - |
| 1777865051 | 17.22° C | 58% | 744.9 hPa | 0 mm | - | - | - |
| 1777864116 | 17.22° C | 57% | 744.8 hPa | 0 mm | - | - | - |
| 1777863180 | 17.22° C | 56% | 744.8 hPa | 0 mm | - | - | - |
| 1777862244 | 17.22° C | 55% | 745.1 hPa | 0 mm | - | - | - |
| 1777861308 | 17.78° C | 55% | 745.3 hPa | 0 mm | - | - | - |
| 1777860372 | 17.78° C | 54% | 745.4 hPa | 0 mm | - | - | - |
| 1777859436 | 17.78° C | 54% | 745.5 hPa | 0 mm | - | - | - |
| 1777858500 | 17.78° C | 54% | 745.7 hPa | 0 mm | - | - | - |
| 1777856628 | 18.33° C | 52% | 746.4 hPa | 0 mm | - | - | - |
| 1777854756 | 19.44° C | 50% | 747.2 hPa | 0 mm | - | - | - |
| 1777851948 | 20° C | 49% | 747.8 hPa | 0 mm | - | - | - |
| 1777850076 | 20.56° C | 49% | 748.5 hPa | 0 mm | - | - | - |
| 1777847268 | 19.44° C | 56% | 747.2 hPa | 0 mm | - | - | - |
| 1777846332 | 18.89° C | 61% | 746.7 hPa | 0 mm | - | - | - |
| 1777844460 | 19.44° C | 56% | 747.2 hPa | 0 mm | - | - | - |
| 1777842589 | 20° C | 54% | 747.7 hPa | 0 mm | - | - | - |
| 1777837909 | 20° C | 53% | 748.2 hPa | 0 mm | - | - | - |
| 1777836973 | 21.11° C | 53% | 749 hPa | 0 mm | - | - | - |
| 1777836037 | 21.67° C | 51% | 749.9 hPa | 0 mm | - | - | - |
* Rain latest hour (hover to see other rain measurements)
** Current wind speed in m/s (hover to see current wind gust speed)